Time;durP1;ratioP1;P1;durP2;ratioP2;P2;SDS_P1;SDS_P2;PMS_P1;PMS_P2;Temp;Humidity;BMP_temperature;BMP_pressure;BME280_temperature;BME280_humidity;BME280_pressure;Samples;Min_cycle;Max_cycle;Signal;HPM_P1;HPM_P2
2022/03/15 00:00:53;;;;;;;23.38;10.90;;;;;;;5.80;76.04;101679.66;8269176;34;20136;-73
2022/03/15 00:05:58;;;;;;;18.58;10.93;;;;;;;5.84;75.73;101683.91;8269831;34;20416;-73
2022/03/15 00:11:05;;;;;;;23.80;11.75;;;;;;;5.87;75.48;101678.44;8271127;34;20493;-74
2022/03/15 00:16:10;;;;;;;22.88;12.45;;;;;;;5.51;74.92;101681.66;8271346;34;20152;-74
2022/03/15 00:21:16;;;;;;;23.50;12.55;;;;;;;5.24;75.65;101691.63;8266597;34;20148;-74
2022/03/15 00:26:19;;;;;;;24.87;13.07;;;;;;;5.12;75.86;101697.38;8267708;34;20553;-73
2022/03/15 00:31:24;;;;;;;22.42;12.70;;;;;;;4.94;76.25;101678.47;8279356;34;20507;-74
2022/03/15 00:36:27;;;;;;;24.45;13.48;;;;;;;4.85;76.78;101684.13;8283680;34;20289;-74
2022/03/15 00:41:31;;;;;;;27.92;15.27;;;;;;;4.76;77.12;101688.00;8250270;34;20455;-74
2022/03/15 00:46:38;;;;;;;28.88;15.18;;;;;;;4.66;77.42;101693.69;8269261;34;20431;-74
2022/03/15 00:51:43;;;;;;;29.55;15.45;;;;;;;4.71;77.86;101695.25;8242101;34;20455;-74
2022/03/15 00:56:46;;;;;;;28.23;14.68;;;;;;;4.82;77.68;101692.22;8240894;34;20469;-74
2022/03/15 01:01:51;;;;;;;25.23;14.13;;;;;;;4.87;77.40;101686.75;8267177;34;20454;-74
2022/03/15 01:06:54;;;;;;;22.80;13.43;;;;;;;4.80;77.42;101699.38;8221244;34;20176;-74
2022/03/15 01:11:59;;;;;;;25.58;13.13;;;;;;;4.81;77.35;101696.69;8212955;34;20188;-74
2022/03/15 01:17:04;;;;;;;25.40;13.82;;;;;;;4.69;76.87;101691.81;8193246;34;20188;-74
2022/03/15 01:22:07;;;;;;;24.45;14.43;;;;;;;4.54;77.04;101690.53;8190487;34;20188;-74
2022/03/15 01:27:10;;;;;;;28.90;15.10;;;;;;;4.32;77.46;101684.25;8212147;34;20149;-74
2022/03/15 01:32:16;;;;;;;28.75;14.48;;;;;;;4.26;78.15;101687.09;8187485;34;20196;-74
2022/03/15 01:37:23;;;;;;;28.35;15.60;;;;;;;4.25;77.89;101680.03;8213885;34;20547;-74
2022/03/15 01:42:26;;;;;;;28.15;15.43;;;;;;;4.26;78.27;101672.00;8213727;34;20259;-74
2022/03/15 01:47:32;;;;;;;27.38;15.25;;;;;;;4.40;78.38;101668.88;8191841;34;20426;-74
2022/03/15 01:52:35;;;;;;;29.65;13.73;;;;;;;4.45;78.08;101669.59;8209550;34;20223;-74
2022/03/15 01:57:38;;;;;;;28.38;14.18;;;;;;;4.45;77.70;101666.94;8209312;34;20187;-74
2022/03/15 02:02:42;;;;;;;27.40;13.73;;;;;;;4.45;77.78;101666.94;8186306;34;20181;-74
2022/03/15 02:07:46;;;;;;;25.55;13.85;;;;;;;4.35;77.90;101661.03;8209296;34;20462;-74
2022/03/15 02:12:49;;;;;;;25.00;13.02;;;;;;;4.29;77.65;101637.31;8215037;34;20377;-74
2022/03/15 02:17:53;;;;;;;28.85;14.32;;;;;;;4.34;78.00;101655.78;8213587;34;20434;-74
2022/03/15 02:22:58;;;;;;;29.10;13.93;;;;;;;4.39;77.92;101659.16;8213808;34;20243;-74
2022/03/15 02:28:01;;;;;;;28.80;13.93;;;;;;;4.42;77.66;101647.56;8210698;34;20413;-74
2022/03/15 02:33:04;;;;;;;27.50;13.60;;;;;;;4.47;77.44;101643.81;8209293;34;20223;-74
2022/03/15 02:38:08;;;;;;;28.33;13.35;;;;;;;4.48;77.21;101636.69;8208074;34;20188;-74
2022/03/15 02:43:12;;;;;;;28.75;13.85;;;;;;;4.48;77.19;101628.69;8207616;34;20552;-74
2022/03/15 02:48:15;;;;;;;26.70;13.65;;;;;;;4.48;77.15;101626.03;8205476;34;21092;-74
2022/03/15 02:53:20;;;;;;;25.48;14.63;;;;;;;4.35;77.11;101620.28;8205751;34;20926;-74
2022/03/15 02:58:23;;;;;;;30.83;15.57;;;;;;;4.24;77.99;101615.31;8207482;34;20207;-74
2022/03/15 03:03:26;;;;;;;28.20;14.15;;;;;;;4.35;77.77;101609.63;8214311;34;20182;-74
2022/03/15 03:08:31;;;;;;;30.20;14.48;;;;;;;4.30;77.83;101619.56;8215017;34;20725;-74
2022/03/15 03:13:37;;;;;;;27.73;14.95;;;;;;;4.29;77.79;101616.03;8229155;34;20254;-73
2022/03/15 03:18:41;;;;;;;32.15;16.55;;;;;;;4.23;77.86;101618.94;8222307;34;20585;-72
2022/03/15 03:23:45;;;;;;;29.92;15.57;;;;;;;4.04;77.76;101625.81;8217871;34;20187;-72
2022/03/15 03:28:48;;;;;;;32.05;15.43;;;;;;;3.86;79.15;101625.47;8219657;34;20436;-74
2022/03/15 03:33:52;;;;;;;31.98;16.10;;;;;;;3.93;78.90;101621.72;8223156;34;20192;-74
2022/03/15 03:38:56;;;;;;;30.27;14.95;;;;;;;3.94;79.08;101625.22;8218950;34;20644;-73
2022/03/15 03:44:00;;;;;;;27.75;15.10;;;;;;;3.91;78.98;101630.66;8220687;34;20598;-73
2022/03/15 03:49:03;;;;;;;29.92;15.57;;;;;;;3.93;78.82;101635.00;8220726;34;20962;-73
2022/03/15 03:54:08;;;;;;;30.08;16.38;;;;;;;3.92;78.68;101616.44;8218979;34;20247;-73
2022/03/15 03:59:12;;;;;;;28.55;14.20;;;;;;;3.90;78.79;101615.63;8217962;34;20160;-73
2022/03/15 04:04:17;;;;;;;29.58;15.90;;;;;;;3.94;78.88;101609.28;8216874;34;20442;-73
2022/03/15 04:09:22;;;;;;;35.75;15.32;;;;;;;3.88;79.15;101604.16;8218236;34;20445;-74
2022/03/15 04:14:28;;;;;;;31.73;15.48;;;;;;;3.93;79.07;101603.09;8217537;34;20350;-74
2022/03/15 04:19:32;;;;;;;28.75;15.00;;;;;;;3.99;79.13;101606.47;8217509;34;20465;-74
2022/03/15 04:24:36;;;;;;;28.33;15.20;;;;;;;4.04;78.77;101616.03;8221194;34;20172;-74
2022/03/15 04:29:40;;;;;;;29.40;14.60;;;;;;;3.98;78.65;101605.59;8217013;34;20191;-74
2022/03/15 04:34:43;;;;;;;29.10;14.40;;;;;;;3.93;78.66;101612.88;8212534;34;20515;-74
2022/03/15 04:39:47;;;;;;;29.42;16.15;;;;;;;3.86;79.14;101604.22;8208859;34;20188;-74
2022/03/15 04:44:50;;;;;;;29.70;16.08;;;;;;;3.88;79.15;101613.00;8210114;34;20548;-73
2022/03/15 04:49:53;;;;;;;30.45;15.10;;;;;;;3.88;79.09;101601.50;8203674;34;20483;-74
2022/03/15 04:54:58;;;;;;;30.15;15.25;;;;;;;3.94;78.97;101596.84;8204607;34;20556;-74
2022/03/15 05:00:01;;;;;;;30.95;15.50;;;;;;;3.88;79.13;101591.75;8204483;34;20151;-73
2022/03/15 05:05:05;;;;;;;29.50;14.77;;;;;;;3.94;78.99;101590.66;8181488;34;20322;-73
2022/03/15 05:15:31;;;;;;;28.50;15.25;;;;;;;3.87;78.97;101589.16;8202670;34;21032;-74
2022/03/15 05:20:34;;;;;;;27.90;14.77;;;;;;;3.84;78.84;101598.09;8201827;34;20434;-73
2022/03/15 05:25:39;;;;;;;32.25;15.00;;;;;;;3.83;78.78;101592.81;8207615;34;20522;-74
2022/03/15 05:30:42;;;;;;;28.67;15.25;;;;;;;3.90;78.84;101597.88;8211671;34;20209;-73
2022/03/15 05:35:45;;;;;;;29.60;15.50;;;;;;;3.98;78.72;101602.06;8212594;34;20223;-73
2022/03/15 05:40:49;;;;;;;25.80;14.98;;;;;;;4.01;78.19;101610.81;8223848;34;20600;-73
2022/03/15 05:45:52;;;;;;;26.92;14.20;;;;;;;4.00;78.53;101610.84;8227183;34;20528;-73
2022/03/15 05:50:56;;;;;;;24.75;14.18;;;;;;;4.02;78.33;101607.22;8226063;34;20145;-73
2022/03/15 05:56:00;;;;;;;31.83;14.95;;;;;;;4.02;78.03;101604.56;8214180;34;20192;-73
2022/03/15 06:01:04;;;;;;;31.52;14.80;;;;;;;3.94;78.11;101606.63;8215376;34;22745;-74
2022/03/15 06:06:07;;;;;;;30.20;16.27;;;;;;;3.88;78.42;101613.00;8213177;34;20153;-73
2022/03/15 06:11:13;;;;;;;27.52;14.02;;;;;;;3.90;78.69;101615.63;8188236;34;20219;-73
2022/03/15 06:16:16;;;;;;;30.60;15.60;;;;;;;3.88;78.68;101609.50;8209783;34;20188;-73
2022/03/15 06:21:20;;;;;;;29.50;14.63;;;;;;;4.07;78.47;101601.75;8210669;34;20165;-72
2022/03/15 06:26:24;;;;;;;28.23;14.43;;;;;;;4.13;78.00;101588.25;8210963;34;20275;-73
2022/03/15 06:31:28;;;;;;;27.80;13.77;;;;;;;4.29;77.66;101594.75;8207372;34;20509;-72
2022/03/15 06:36:31;;;;;;;27.50;15.10;;;;;;;4.38;77.34;101588.22;8206540;34;20600;-73
2022/03/15 06:41:39;;;;;;;29.17;14.60;;;;;;;4.31;77.20;101581.41;8206127;34;20969;-74
2022/03/15 06:46:42;;;;;;;25.00;14.10;;;;;;;4.49;76.88;101582.53;8204889;34;20693;-74
2022/03/15 06:51:45;;;;;;;33.55;15.88;;;;;;;4.54;76.59;101572.59;8205618;34;20432;-73
2022/03/15 06:56:56;;;;;;;22.35;12.15;;;;;;;4.68;76.35;101583.56;8214081;34;20191;-73
2022/03/15 07:01:59;;;;;;;21.02;11.25;;;;;;;5.01;75.33;101585.91;8241043;34;20199;-73
2022/03/15 07:07:03;;;;;;;22.60;11.05;;;;;;;5.36;74.45;101586.34;8252011;34;20183;-73
2022/03/15 07:12:08;;;;;;;21.92;11.38;;;;;;;5.50;73.66;101579.50;8307593;34;21085;-74
2022/03/15 07:17:11;;;;;;;26.98;12.55;;;;;;;5.53;73.05;101567.84;8313590;34;20436;-72
2022/03/15 07:22:15;;;;;;;21.25;12.40;;;;;;;5.77;72.41;101570.44;8321134;34;20423;-72
2022/03/15 07:27:19;;;;;;;18.23;11.02;;;;;;;5.88;72.65;101561.06;8329068;34;20159;-72
2022/03/15 07:32:22;;;;;;;22.02;11.52;;;;;;;6.07;72.24;101562.94;8319436;34;20462;-72
2022/03/15 07:37:25;;;;;;;22.95;11.38;;;;;;;6.06;71.60;101563.84;8314781;34;21104;-72
2022/03/15 07:42:30;;;;;;;21.95;11.90;;;;;;;6.05;71.61;101551.44;8313456;34;20220;-72
2022/03/15 07:47:33;;;;;;;24.33;12.00;;;;;;;6.16;71.64;101550.03;8313059;34;20470;-73
2022/03/15 07:52:37;;;;;;;27.80;12.55;;;;;;;6.06;72.16;101551.41;8313606;34;20531;-72
2022/03/15 07:57:42;;;;;;;23.45;12.75;;;;;;;6.09;72.18;101553.06;8313063;34;20703;-71
2022/03/15 08:02:45;;;;;;;22.67;12.05;;;;;;;6.21;71.66;101546.31;8323678;34;20472;-72
2022/03/15 08:07:48;;;;;;;20.98;11.75;;;;;;;6.32;71.70;101555.56;8320603;34;20468;-71
2022/03/15 08:12:53;;;;;;;20.02;12.05;;;;;;;6.49;71.41;101548.59;8323582;34;20434;-71
2022/03/15 08:17:57;;;;;;;23.90;11.68;;;;;;;6.44;71.51;101543.47;8324498;34;20147;-71
2022/03/15 08:23:00;;;;;;;21.80;12.05;;;;;;;6.49;71.32;101552.13;8323478;34;20191;-71
2022/03/15 08:28:05;;;;;;;22.38;11.93;;;;;;;6.53;70.97;101558.22;8302249;34;20429;-70
2022/03/15 08:33:08;;;;;;;17.23;10.68;;;;;;;6.72;70.92;101543.09;8312590;34;20434;-71
2022/03/15 08:38:12;;;;;;;23.27;11.55;;;;;;;6.83;70.05;101531.91;8327341;34;20476;-72
2022/03/15 08:43:16;;;;;;;20.42;11.57;;;;;;;6.74;70.10;101521.63;8336175;34;20148;-72
2022/03/15 08:48:20;;;;;;;31.88;18.15;;;;;;;6.87;70.54;101505.91;8324009;34;20412;-72
2022/03/15 08:53:23;;;;;;;36.28;18.65;;;;;;;7.23;70.00;101508.63;8299033;34;20399;-72
2022/03/15 08:58:27;;;;;;;26.48;16.42;;;;;;;7.17;69.25;101508.94;8317826;34;20653;-71
2022/03/15 09:03:30;;;;;;;23.45;15.05;;;;;;;7.46;69.29;101496.78;8313481;34;20551;-72
2022/03/15 09:08:34;;;;;;;22.42;12.05;;;;;;;7.90;68.56;101504.38;8312118;34;20865;-72
2022/03/15 09:13:38;;;;;;;24.35;14.05;;;;;;;8.00;67.34;101505.59;8312615;34;20633;-73
2022/03/15 09:18:46;;;;;;;25.00;12.90;;;;;;;8.01;67.16;101498.41;8314814;34;20550;-72
2022/03/15 09:23:49;;;;;;;20.75;12.68;;;;;;;8.08;66.83;101492.66;8314069;34;20562;-73
2022/03/15 09:28:54;;;;;;;20.77;12.65;;;;;;;8.08;66.23;101491.81;8311138;34;20472;-73
2022/03/15 09:33:57;;;;;;;34.53;18.63;;;;;;;8.24;66.93;101475.81;8310111;34;20660;-73
2022/03/15 09:39:00;;;;;;;24.27;12.93;;;;;;;8.54;66.17;101471.47;8311887;34;20394;-73
2022/03/15 09:44:07;;;;;;;21.00;12.63;;;;;;;8.58;65.41;101457.00;8310557;34;20201;-72
2022/03/15 09:49:11;;;;;;;52.00;26.98;;;;;;;8.58;65.18;101454.31;8311293;34;20275;-73
2022/03/15 09:54:17;;;;;;;27.83;17.25;;;;;;;8.98;64.83;101460.06;8311327;34;21489;-73
2022/03/15 09:59:24;;;;;;;38.22;22.27;;;;;;;9.12;64.53;101461.09;8312663;34;20540;-72
2022/03/15 10:04:29;;;;;;;18.15;11.05;;;;;;;9.02;63.81;101456.28;8301216;34;20431;-72
2022/03/15 10:09:32;;;;;;;15.90;10.02;;;;;;;9.21;63.59;101448.00;8296471;34;21023;-73
2022/03/15 10:14:43;;;;;;;15.02;9.73;;;;;;;9.37;64.24;101437.25;8322765;34;20155;-72
2022/03/15 10:19:54;;;;;;;16.75;10.77;;;;;;;9.54;63.00;101441.59;8319345;34;21017;-72
2022/03/15 10:24:59;;;;;;;15.52;10.25;;;;;;;9.55;62.88;101424.56;8316810;34;20885;-72
2022/03/15 10:30:05;;;;;;;15.55;10.20;;;;;;;9.81;62.62;101417.59;8316143;34;21154;-72
2022/03/15 10:35:10;;;;;;;19.02;10.70;;;;;;;10.00;62.36;101416.50;8311378;34;20543;-72
2022/03/15 10:40:16;;;;;;;17.23;11.90;;;;;;;9.96;62.22;101406.94;8313091;34;20574;-72
2022/03/15 10:45:24;;;;;;;14.52;10.55;;;;;;;10.28;61.58;101405.75;8319814;34;20143;-72
2022/03/15 10:50:29;;;;;;;18.77;9.93;;;;;;;10.38;61.47;101400.66;8332017;34;20131;-72
2022/03/15 10:55:33;;;;;;;17.63;10.00;;;;;;;10.44;61.59;101385.97;8293961;34;20250;-72
2022/03/15 11:00:40;;;;;;;17.05;10.32;;;;;;;10.42;61.08;101382.50;8316641;34;20452;-72
2022/03/15 11:05:44;;;;;;;16.25;11.80;;;;;;;10.08;62.15;101377.47;8314977;34;20954;-73
2022/03/15 11:10:51;;;;;;;13.75;8.77;;;;;;;10.31;61.97;101372.44;8314296;34;20472;-72
2022/03/15 11:15:58;;;;;;;16.90;11.85;;;;;;;10.48;60.94;101368.69;8318248;34;20136;-72
2022/03/15 11:21:03;;;;;;;14.05;10.50;;;;;;;10.38;61.21;101363.06;8319213;34;20166;-72
2022/03/15 11:26:08;;;;;;;13.63;9.57;;;;;;;10.70;61.33;101352.88;8299063;34;20531;-72
2022/03/15 11:31:12;;;;;;;13.82;8.75;;;;;;;11.00;60.76;101343.75;8291698;34;20183;-72
2022/03/15 11:36:17;;;;;;;11.93;8.60;;;;;;;10.90;59.84;101334.56;8292622;34;20995;-73
2022/03/15 11:41:21;;;;;;;12.55;8.35;;;;;;;11.14;59.43;101327.56;8300870;34;20190;-72
2022/03/15 11:46:31;;;;;;;13.57;8.13;;;;;;;11.26;59.50;101315.94;8325497;34;21339;-73
2022/03/15 11:51:46;;;;;;;13.63;9.43;;;;;;;11.15;58.44;101312.28;8272485;34;20539;-72
2022/03/15 11:56:54;;;;;;;11.73;8.57;;;;;;;11.10;59.44;101291.03;8276418;34;20446;-74
2022/03/15 12:02:04;;;;;;;13.07;8.38;;;;;;;11.08;58.89;101279.56;8285223;34;20538;-72
2022/03/15 12:07:09;;;;;;;13.43;8.88;;;;;;;11.27;58.96;101269.25;8285576;34;20180;-72
2022/03/15 12:12:12;;;;;;;11.02;8.13;;;;;;;11.54;58.07;101262.03;8284991;34;20736;-73
2022/03/15 12:17:17;;;;;;;12.82;8.23;;;;;;;11.68;57.61;101251.13;8284233;34;20321;-73
2022/03/15 12:22:26;;;;;;;13.52;7.85;;;;;;;11.49;58.00;101243.50;8282173;34;20545;-72
2022/03/15 12:27:40;;;;;;;11.90;6.80;;;;;;;11.67;58.28;101235.97;8272384;34;20919;-73
2022/03/15 12:32:52;;;;;;;10.68;7.22;;;;;;;11.74;57.33;101221.09;8277331;34;20229;-73
2022/03/15 12:38:06;;;;;;;12.07;6.53;;;;;;;11.63;56.56;101213.81;8275040;34;20508;-73
2022/03/15 12:43:09;;;;;;;12.40;6.88;;;;;;;11.80;56.15;101206.34;8268864;34;20206;-72
2022/03/15 12:48:18;;;;;;;9.98;6.00;;;;;;;11.61;55.76;101204.13;8268759;34;20537;-73
2022/03/15 12:53:38;;;;;;;9.95;6.07;;;;;;;11.58;56.63;101196.28;8266021;34;20156;-73
2022/03/15 12:58:43;;;;;;;10.50;6.00;;;;;;;11.63;56.51;101186.03;8264269;34;20361;-73
2022/03/15 13:03:48;;;;;;;11.60;6.45;;;;;;;11.88;55.85;101179.72;8263839;34;20199;-73
2022/03/15 13:08:55;;;;;;;13.63;7.35;;;;;;;11.98;54.90;101172.66;8264030;34;20144;-73
2022/03/15 13:14:02;;;;;;;11.98;7.10;;;;;;;11.66;54.64;101172.34;8263032;34;20200;-73
2022/03/15 13:19:06;;;;;;;17.52;10.15;;;;;;;11.27;54.89;101167.06;8259489;34;20142;-73
2022/03/15 13:24:10;;;;;;;9.43;6.70;;;;;;;11.32;54.81;101157.78;8261640;34;21046;-73
2022/03/15 13:29:14;;;;;;;10.07;5.55;;;;;;;10.86;54.71;101161.00;8261256;34;20526;-72
2022/03/15 13:34:24;;;;;;;9.55;5.07;;;;;;;11.04;55.38;101154.34;8261531;34;20263;-73
2022/03/15 13:39:28;;;;;;;8.95;5.65;;;;;;;11.13;54.57;101152.84;8311199;34;20524;-72
2022/03/15 13:44:32;;;;;;;9.93;5.82;;;;;;;11.19;54.24;101147.03;8312778;34;20544;-72
2022/03/15 13:49:41;;;;;;;11.73;5.65;;;;;;;11.25;54.40;101149.31;8290962;34;20329;-74
2022/03/15 13:54:50;;;;;;;7.22;6.05;;;;;;;11.34;53.82;101139.72;8313942;34;20186;-73
2022/03/15 14:00:05;;;;;;;7.63;5.00;;;;;;;11.33;54.33;101135.31;8310948;34;20247;-73
2022/03/15 14:05:23;;;;;;;7.47;5.07;;;;;;;11.27;54.13;101134.78;8309186;34;21058;-72
2022/03/15 14:10:28;;;;;;;10.13;5.70;;;;;;;11.18;54.27;101119.28;8320600;34;20470;-73
2022/03/15 14:15:31;;;;;;;8.98;5.35;;;;;;;10.87;54.17;101119.75;8266040;34;20516;-72
2022/03/15 14:20:41;;;;;;;7.10;4.80;;;;;;;10.85;53.86;101122.53;8227414;34;21166;-72
2022/03/15 14:25:46;;;;;;;8.55;5.05;;;;;;;10.89;54.76;101112.41;8153639;35;20490;-72
2022/03/15 14:30:49;;;;;;;8.55;5.40;;;;;;;10.94;54.49;101119.22;8159432;35;21031;-72
2022/03/15 14:35:59;;;;;;;8.38;5.13;;;;;;;10.91;55.04;101110.47;8159034;35;20563;-72
2022/03/15 14:41:02;;;;;;;8.10;5.20;;;;;;;10.83;54.77;101103.84;8158008;35;20425;-72
2022/03/15 14:46:08;;;;;;;10.43;5.68;;;;;;;10.81;54.50;101105.75;8159714;35;21108;-72
2022/03/15 14:51:14;;;;;;;10.20;6.07;;;;;;;10.98;54.72;101109.94;8159023;35;20447;-72
2022/03/15 14:56:17;;;;;;;11.40;6.38;;;;;;;11.10;55.82;101110.88;8159120;35;20961;-72
2022/03/15 15:01:20;;;;;;;12.35;6.88;;;;;;;11.14;54.85;101115.13;8164907;35;20804;-72
2022/03/15 15:06:24;;;;;;;31.30;14.20;;;;;;;11.06;54.75;101117.47;8160591;35;20193;-72
2022/03/15 15:11:28;;;;;;;34.63;14.38;;;;;;;11.02;55.05;101102.50;8159084;35;21948;-72
2022/03/15 15:16:34;;;;;;;55.42;23.92;;;;;;;11.00;55.23;101107.16;8157422;35;20484;-72
2022/03/15 15:21:39;;;;;;;11.50;6.97;;;;;;;10.94;54.96;101108.47;8158268;35;20192;-72
2022/03/15 15:26:43;;;;;;;9.10;6.10;;;;;;;10.87;54.66;101114.38;8158948;35;20636;-72
2022/03/15 15:31:46;;;;;;;12.45;6.22;;;;;;;10.92;54.80;101117.59;8159326;35;20652;-72
2022/03/15 15:36:51;;;;;;;8.90;5.43;;;;;;;10.83;53.91;101113.69;8167360;35;21780;-72
2022/03/15 15:41:54;;;;;;;7.05;5.40;;;;;;;10.87;54.18;101115.22;8171459;35;20552;-73
2022/03/15 15:46:59;;;;;;;11.50;7.55;;;;;;;10.89;53.79;101112.41;8170716;35;20485;-71
2022/03/15 15:52:05;;;;;;;11.95;7.43;;;;;;;10.75;53.36;101118.75;8173801;35;20544;-74
2022/03/15 15:57:17;;;;;;;11.32;7.65;;;;;;;10.67;53.82;101122.00;8170283;35;20512;-71
2022/03/15 16:02:21;;;;;;;8.38;5.80;;;;;;;10.47;54.01;101133.25;8203459;34;21908;-71
2022/03/15 16:07:30;;;;;;;24.00;13.05;;;;;;;10.41;53.94;101126.47;8231572;34;20717;-72
2022/03/15 16:12:33;;;;;;;22.50;12.90;;;;;;;10.36;54.22;101124.09;8228964;34;20307;-73
2022/03/15 16:17:36;;;;;;;11.25;6.80;;;;;;;10.36;54.86;101124.09;8224578;34;20167;-74
2022/03/15 16:22:46;;;;;;;8.32;5.40;;;;;;;10.30;54.97;101132.59;8282888;34;20436;-73
2022/03/15 16:27:49;;;;;;;11.55;5.82;;;;;;;10.32;54.88;101137.88;8277770;34;20436;-73
2022/03/15 16:32:52;;;;;;;9.95;6.22;;;;;;;10.32;54.92;101143.25;8272278;34;20439;-73
2022/03/15 16:37:57;;;;;;;10.40;5.70;;;;;;;10.30;55.11;101142.47;8279498;34;20448;-73
2022/03/15 16:43:00;;;;;;;9.57;6.00;;;;;;;10.29;54.75;101149.66;8267906;34;20175;-72
2022/03/15 16:48:04;;;;;;;9.15;6.03;;;;;;;10.24;54.59;101151.81;8268899;34;20426;-73
2022/03/15 16:53:09;;;;;;;17.98;10.77;;;;;;;10.21;54.79;101148.47;8276867;34;20519;-72
2022/03/15 17:08:48;;;;;;;12.43;7.85;;;;;;;10.23;55.49;101149.22;8267364;34;20283;-72
2022/03/15 17:13:51;;;;;;;13.05;6.80;;;;;;;10.16;55.58;101152.31;8265072;34;20421;-72
2022/03/15 17:26:04;;;;;;;13.55;6.60;;;;;;;9.65;56.90;101154.78;8279822;34;20207;-74
2022/03/15 17:31:08;;;;;;;10.10;6.97;;;;;;;9.41;57.56;101157.22;8289776;34;20952;-72
2022/03/15 17:36:13;;;;;;;11.82;6.90;;;;;;;9.19;58.08;101164.91;8297511;34;20151;-71
2022/03/15 17:41:23;;;;;;;12.02;7.55;;;;;;;8.93;58.44;101162.00;8319317;34;20135;-74
2022/03/15 17:46:28;;;;;;;12.07;6.78;;;;;;;8.71;59.12;101149.09;8319245;34;20488;-74
2022/03/15 17:51:36;;;;;;;11.98;7.22;;;;;;;8.48;60.38;101150.50;8318883;34;20511;-73
2022/03/15 17:56:44;;;;;;;11.50;7.00;;;;;;;8.34;61.40;101151.28;8317155;34;21119;-72
2022/03/15 18:01:54;;;;;;;13.23;7.88;;;;;;;8.20;61.71;101148.56;8318379;34;20159;-73
2022/03/15 18:06:58;;;;;;;14.35;8.02;;;;;;;8.04;62.46;101150.41;8318244;34;20427;-74
2022/03/15 18:12:02;;;;;;;13.05;8.77;;;;;;;7.92;62.38;101168.88;8321057;34;20158;-74
2022/03/15 18:17:07;;;;;;;15.57;8.50;;;;;;;7.83;62.56;101160.53;8306816;34;20542;-75
2022/03/15 18:22:10;;;;;;;20.17;9.55;;;;;;;7.76;63.38;101164.50;8295354;34;20173;-74
2022/03/15 18:27:17;;;;;;;20.48;11.52;;;;;;;7.65;63.77;101168.66;8321733;34;20421;-74
2022/03/15 18:32:23;;;;;;;18.83;12.07;;;;;;;7.55;64.44;101171.94;8314017;34;20958;-73
2022/03/15 18:37:46;;;;;;;20.35;11.95;;;;;;;7.48;64.47;101168.72;8306209;34;20424;-74
2022/03/15 18:42:51;;;;;;;22.02;12.52;;;;;;;7.39;64.81;101175.44;8313655;34;20638;-74
2022/03/15 18:47:54;;;;;;;32.20;18.48;;;;;;;7.32;65.29;101182.06;8321836;34;21197;-73
2022/03/15 18:52:59;;;;;;;24.58;13.50;;;;;;;7.28;65.59;101192.06;8320309;34;21694;-75
2022/03/15 18:58:04;;;;;;;18.73;11.20;;;;;;;7.21;66.12;101187.13;8316817;34;20609;-74
2022/03/15 19:03:08;;;;;;;17.05;10.98;;;;;;;7.20;66.51;101202.31;8316613;34;20159;-72
2022/03/15 19:08:13;;;;;;;17.23;11.32;;;;;;;7.17;66.87;101188.25;8319928;34;20617;-74
2022/03/15 19:13:18;;;;;;;16.73;10.02;;;;;;;7.26;66.54;101198.44;8321990;34;20198;-73
2022/03/15 19:18:24;;;;;;;16.95;8.93;;;;;;;7.37;66.07;101213.91;8325237;34;20139;-74
2022/03/15 19:23:29;;;;;;;21.33;11.38;;;;;;;7.40;66.08;101213.72;8338328;34;20609;-74
2022/03/15 19:28:37;;;;;;;26.90;15.20;;;;;;;7.27;65.91;101227.78;8329328;34;20549;-75
2022/03/15 19:33:40;;;;;;;26.25;15.43;;;;;;;7.11;66.50;101221.53;8341402;34;20189;-74
2022/03/15 19:38:45;;;;;;;19.48;11.60;;;;;;;6.97;66.81;101230.28;8338590;34;20254;-74
2022/03/15 19:43:56;;;;;;;16.77;10.07;;;;;;;6.69;67.82;101246.84;8344341;34;20488;-74
2022/03/15 19:49:01;;;;;;;17.23;9.38;;;;;;;6.57;68.21;101239.44;8338074;34;20882;-75
2022/03/15 19:54:05;;;;;;;15.23;8.70;;;;;;;6.57;68.45;101242.09;8325756;34;20914;-74
2022/03/15 19:59:14;;;;;;;14.13;8.18;;;;;;;6.56;67.99;101241.25;8337361;34;20244;-73
2022/03/15 20:04:19;;;;;;;18.55;9.50;;;;;;;6.56;67.84;101243.91;8338092;34;20430;-75
2022/03/15 20:09:25;;;;;;;12.48;8.52;;;;;;;6.51;67.81;101242.41;8329764;34;21026;-73
2022/03/15 20:14:32;;;;;;;17.85;11.60;;;;;;;6.45;68.00;101238.25;8322582;34;20718;-75
2022/03/15 20:19:35;;;;;;;13.65;10.57;;;;;;;6.34;68.12;101228.13;8323447;34;20421;-74
2022/03/15 20:24:39;;;;;;;20.10;11.50;;;;;;;6.28;68.24;101232.88;8325186;34;21009;-74
2022/03/15 20:29:44;;;;;;;18.58;11.38;;;;;;;6.16;68.48;101221.88;8324203;34;21012;-74
2022/03/15 20:34:48;;;;;;;17.67;11.63;;;;;;;6.09;68.63;101220.47;8324987;34;20218;-74
2022/03/15 20:39:51;;;;;;;26.83;17.23;;;;;;;5.93;69.38;101211.47;8322551;34;20668;-73
2022/03/15 20:44:56;;;;;;;23.25;14.18;;;;;;;5.80;69.81;101211.19;8321693;34;20529;-74
2022/03/15 20:50:01;;;;;;;24.85;14.75;;;;;;;5.69;70.02;101206.38;8323847;34;20242;-74
2022/03/15 20:55:05;;;;;;;25.83;15.00;;;;;;;5.69;70.40;101216.19;8321564;34;20761;-73
2022/03/15 21:00:11;;;;;;;30.42;18.48;;;;;;;5.66;70.76;101213.66;8321140;34;20491;-73
2022/03/15 21:05:17;;;;;;;22.67;14.02;;;;;;;5.70;70.68;101234.78;8297569;34;20618;-74
2022/03/15 21:10:20;;;;;;;24.58;14.57;;;;;;;5.78;70.80;101244.19;8292425;34;20167;-72
2022/03/15 21:15:26;;;;;;;17.58;11.30;;;;;;;5.71;70.90;101249.81;8293166;34;20253;-73
2022/03/15 21:20:29;;;;;;;24.42;14.05;;;;;;;5.56;70.75;101260.34;8297806;34;20449;-73
2022/03/15 21:25:34;;;;;;;20.35;12.57;;;;;;;5.39;71.61;101269.09;8290865;34;20514;-73
2022/03/15 21:30:39;;;;;;;20.95;14.85;;;;;;;5.17;71.93;101271.88;8295585;34;20436;-73
2022/03/15 21:35:43;;;;;;;22.02;13.52;;;;;;;5.01;73.03;101267.19;8293584;34;20191;-73
2022/03/15 21:40:49;;;;;;;20.98;13.07;;;;;;;5.05;73.17;101260.81;8290683;34;20185;-73
2022/03/15 21:45:53;;;;;;;20.42;13.18;;;;;;;5.14;73.02;101283.53;8285328;34;21436;-73
2022/03/15 21:51:01;;;;;;;25.50;14.65;;;;;;;5.08;72.64;101289.13;8293828;34;21974;-73
2022/03/15 21:56:05;;;;;;;22.63;13.45;;;;;;;5.01;73.23;101298.31;8302562;34;21071;-73
2022/03/15 22:01:12;;;;;;;26.73;14.73;;;;;;;4.79;73.83;101303.66;8319825;34;21077;-73
2022/03/15 22:06:20;;;;;;;28.30;14.90;;;;;;;4.57;74.97;101319.66;8318040;34;20298;-72
2022/03/15 22:11:23;;;;;;;28.10;14.60;;;;;;;4.40;75.81;101318.53;8299151;34;20184;-72
2022/03/15 22:16:27;;;;;;;25.15;15.52;;;;;;;4.09;77.34;101336.66;8289478;34;20757;-72
2022/03/15 22:21:33;;;;;;;27.73;17.20;;;;;;;4.07;77.66;101342.03;8290966;34;20650;-72
2022/03/15 22:26:36;;;;;;;33.20;18.20;;;;;;;4.16;78.04;101340.78;8284355;34;20565;-72
2022/03/15 23:19:14;;;;;;;26.10;17.17;;;;;;;3.50;75.33;101362.72;8265240;34;20499;-74
2022/03/15 23:24:17;;;;;;;26.35;16.98;;;;;;;3.45;75.47;101367.34;8264724;34;20171;-73
2022/03/15 23:29:20;;;;;;;26.25;15.85;;;;;;;3.38;75.57;101360.53;8262591;34;20171;-74
2022/03/15 23:34:24;;;;;;;25.13;16.98;;;;;;;3.30;75.86;101351.97;8268533;34;20337;-74
2022/03/15 23:39:28;;;;;;;30.83;17.13;;;;;;;3.21;76.11;101344.31;8269536;34;20459;-72
2022/03/15 23:44:31;;;;;;;26.35;15.20;;;;;;;3.26;76.53;101348.56;8269388;34;21017;-74
2022/03/15 23:49:37;;;;;;;28.15;16.08;;;;;;;3.29;76.98;101344.91;8269209;34;20156;-73
2022/03/15 23:54:41;;;;;;;31.52;16.98;;;;;;;3.40;77.41;101344.53;8270358;34;20541;-72
2022/03/15 23:59:44;;;;;;;30.05;17.77;;;;;;;3.53;77.38;101353.78;8268916;34;20238;-72
